Terminal Aerodrome Forecast
Issued by NWS

Home | Current Version | Previous Version | Text Only | Print | Product List | Glossary On
Versions: 1 2 3 4 5 6 7 8 9 10 11 12 13 14 15 16 17
000
FTUS46 KMFR 190500
TAFRBG
TAF
KRBG 190528Z 1906/2006 00000KT P6SM SCT100 BKN150
     FM191500 18008KT P6SM SCT025 BKN040 OVC080
     FM191800 21012G18KT P6SM -RA BKN025 OVC040
     FM192100 25008KT P6SM -SHRA BKN025 BKN040
     FM200000 32006KT P6SM SCT025 BKN050=

USA.gov is the U.S. government's official web portal to all federal, state and local government web resources and services.